Wetterstation Vordersexau
Wetterdaten: Juni 2016
Datum Temp. A. Feuchte A. Luftdruck Regen Wind Richtung Taupunkt Windchill Windben
01.06.2016 18,0 C 68 % 1011,6 hPa 0,0 l/m 0,3 km/h N 11,6 C 18,0 C 0,2 km/h
02.06.2016 16,7 C 77 % 1008,6 hPa 1,7 l/m 3,1 km/h W-SW 12,6 C 16,3 C 1,7 km/h
03.06.2016 17,7 C 77 % 1008,6 hPa 0,8 l/m 2,5 km/h W 13,6 C 17,5 C 1,4 km/h
04.06.2016 17,0 C 79 % 1010,3 hPa 15,3 l/m 2,3 km/h W 13,2 C 16,7 C 1,3 km/h
05.06.2016 18,6 C 78 % 1014,1 hPa 2,5 l/m 1,0 km/h N-NO 14,4 C 18,5 C 0,6 km/h
06.06.2016 19,5 C 75 % 1016,0 hPa 2,5 l/m 1,1 km/h O-SO 14,7 C 19,4 C 0,6 km/h
07.06.2016 19,8 C 76 % 1017,7 hPa 0,8 l/m 2,2 km/h SO 15,1 C 19,5 C 1,2 km/h
08.06.2016 18,0 C 81 % 1016,4 hPa 12,0 l/m 0,9 km/h O-SO 14,6 C 17,8 C 0,5 km/h
09.06.2016 19,6 C 66 % 1014,4 hPa 0,0 l/m 2,2 km/h W-SW 12,5 C 19,4 C 1,2 km/h
10.06.2016 20,2 C 64 % 1010,0 hPa 0,0 l/m 1,6 km/h SO 12,2 C 20,2 C 0,9 km/h
11.06.2016 18,0 C 76 % 1008,5 hPa 3,3 l/m 9,1 km/h SW 13,5 C 16,7 C 5,1 km/h
12.06.2016 16,4 C 82 % 1008,6 hPa 4,1 l/m 10,6 km/h S-SW 13,2 C 14,5 C 5,9 km/h
13.06.2016 14,9 C 83 % 1003,6 hPa 42,3 l/m 3,9 km/h SO 12,2 C 14,3 C 2,2 km/h
14.06.2016 14,6 C 83 % 1001,2 hPa 1,7 l/m 4,8 km/h S-SO 11,7 C 13,7 C 2,7 km/h
15.06.2016 15,7 C 76 % 1000,5 hPa 2,9 l/m 6,2 km/h O-NO 11,1 C 14,7 C 3,4 km/h
16.06.2016 15,0 C 81 % 1001,0 hPa 4,6 l/m 0,5 km/h SO 11,7 C 15,0 C 0,3 km/h
17.06.2016 15,8 C 76 % 1007,8 hPa 2,5 l/m 8,9 km/h SW 11,4 C 14,0 C 5,0 km/h
18.06.2016 15,9 C 76 % 1015,7 hPa 2,5 l/m 4,0 km/h O-SO 11,5 C 15,3 C 2,2 km/h
19.06.2016 16,4 C 71 % 1020,7 hPa 3,7 l/m 1,3 km/h N-NO 10,9 C 16,3 C 0,7 km/h
20.06.2016 17,6 C 67 % 1019,9 hPa 0,0 l/m 3,3 km/h SO 10,9 C 17,3 C 1,8 km/h
21.06.2016 19,1 C 76 % 1019,6 hPa 3,7 l/m 9,6 km/h SO 14,7 C 17,7 C 5,3 km/h
22.06.2016 24,1 C 68 % 1020,0 hPa 0,0 l/m 0,7 km/h SO 17,2 C 24,1 C 0,4 km/h
23.06.2016 27,4 C 63 % 1016,6 hPa 0,0 l/m 0,6 km/h O 18,8 C 27,4 C 0,3 km/h
24.06.2016 27,3 C 61 % 1014,1 hPa 0,0 l/m 5,0 km/h W 18,3 C 27,2 C 2,8 km/h
25.06.2016 20,6 C 77 % 1012,8 hPa 23,2 l/m 2,7 km/h SO 16,4 C 20,4 C 1,5 km/h
26.06.2016 19,2 C 66 % 1016,6 hPa 0,4 l/m 1,4 km/h SO 12,0 C 19,2 C 0,8 km/h
27.06.2016 19,5 C 64 % 1018,8 hPa 0,0 l/m 2,1 km/h O-SO 11,9 C 19,3 C 1,2 km/h
28.06.2016 21,7 C 67 % 1015,3 hPa 0,0 l/m 3,3 km/h O-SO 14,6 C 21,5 C 1,8 km/h
29.06.2016 22,0 C 68 % 1012,3 hPa 0,0 l/m 6,0 km/h W 15,2 C 21,5 C 3,3 km/h
30.06.2016 21,2 C 72 % 1013,0 hPa 2,1 l/m 4,0 km/h W-SW 15,6 C 20,8 C 2,2 km/h
Min-Datum 20.06.16 23.06.16 15.06.16 20 Tage 01.06.16 - 20.06.16 17.06.16 01.06.16
Min-Zeit 05:41 18:41 04:41 - 00:41 - 05:41 09:41 00:41
Minimum 7,9 C 30 % 999,1 hPa - 0,0 km/h - 5,7 C 6,8 C 0,0 km/h
Max-Datum 23.06.16 01.06.16 19.06.16 13.06.16 12.06.16 - 23.06.16 23.06.16 12.06.16
Max-Zeit 17:41 04:41 23:41 15:41 16:41 - 14:41 17:41 16:41
Maximum 42,4 C 86 % 1022,5 hPa 42,3 l/m 40,8 km/h
S-SW
- 23,3 C 42,4 C 22,7 km/h
S-SW
Durchschnitt 18,9 C 73 % 1012,5 hPa #132,6 l/m 3,5 km/h SO 13,6 C 18,5 C 2,0 km/h

Durchschnitt Minimum Temp.13,0 C
Durchschnitt Maximum Temp.27,7 C
www.sexauwetter.de